createdAt,value
2022-12-25T00:02:38.167Z,6.3
2022-12-25T00:12:38.680Z,6.4
2022-12-25T00:22:38.932Z,6.6
2022-12-25T00:32:39.946Z,6.8
2022-12-25T00:42:40.492Z,6.9
2022-12-25T00:52:41.537Z,7
2022-12-25T01:02:42.054Z,7
2022-12-25T01:12:42.664Z,7.1
2022-12-25T01:22:43.515Z,7.1
2022-12-25T01:32:44.430Z,7.2
2022-12-25T01:42:44.679Z,7.2
2022-12-25T01:52:44.891Z,7.3
2022-12-25T02:12:46.243Z,7.5
2022-12-25T02:22:46.646Z,7.6
2022-12-25T02:32:47.159Z,7.6
2022-12-25T02:42:47.746Z,7.8
2022-12-25T02:52:48.317Z,7.9
2022-12-25T03:02:49.324Z,8.1
2022-12-25T03:12:49.485Z,8.2
2022-12-25T03:22:50.038Z,8.2
2022-12-25T03:32:50.538Z,8.3
2022-12-25T03:42:51.383Z,8.3
2022-12-25T03:52:51.941Z,8.3
2022-12-25T04:02:52.807Z,8.2
2022-12-25T04:12:52.867Z,8.2
2022-12-25T04:22:53.075Z,8.2
2022-12-25T04:32:53.673Z,8.1
2022-12-25T05:02:55.867Z,7.9
2022-12-25T05:12:55.968Z,7.9
2022-12-25T05:22:56.467Z,7.8
2022-12-25T05:32:57.565Z,7.6
2022-12-25T05:42:58.501Z,7.4
2022-12-25T05:53:02.869Z,7.2
2022-12-25T06:02:59.366Z,7.2
2022-12-25T06:13:00.010Z,7.1
2022-12-25T06:23:00.674Z,7.1
2022-12-25T06:33:01.253Z,7
2022-12-25T06:43:02.145Z,6.9
2022-12-25T06:53:03.053Z,6.9
2022-12-25T07:03:03.730Z,6.8
2022-12-25T07:13:04.360Z,6.7
2022-12-25T07:23:04.509Z,6.9
2022-12-25T07:33:04.923Z,7
2022-12-25T07:43:05.716Z,7.1
2022-12-25T07:53:06.432Z,7.2
2022-12-25T08:03:07.338Z,7.2
2022-12-25T08:13:12.485Z,7.2
2022-12-25T08:23:08.281Z,7.2
2022-12-25T08:33:09.070Z,7.2
2022-12-25T08:43:09.177Z,7.4
2022-12-25T09:03:10.452Z,7.6
2022-12-25T09:13:11.251Z,7.7
2022-12-25T09:23:13.909Z,7.7
2022-12-25T09:33:12.769Z,7.8
2022-12-25T09:43:12.960Z,7.9
2022-12-25T09:53:13.990Z,8
2022-12-25T10:03:14.510Z,8
2022-12-25T10:13:14.605Z,8
2022-12-25T10:23:15.102Z,8.1
2022-12-25T10:23:36.997Z,8.1
2022-12-25T10:33:21.260Z,8.2
2022-12-25T10:43:21.784Z,8.3
2022-12-25T10:53:22.086Z,8.4
2022-12-25T11:03:23.076Z,8.5
2022-12-25T11:13:23.387Z,8.5
2022-12-25T11:23:24.151Z,8.5
2022-12-25T11:33:24.441Z,8.5
2022-12-25T11:43:24.677Z,8.5
2022-12-25T11:53:25.085Z,8.6
2022-12-25T12:03:26.088Z,8.6
2022-12-25T12:13:26.116Z,8.6
2022-12-25T12:23:26.782Z,8.7
2022-12-25T12:33:27.731Z,8.7
2022-12-25T12:43:28.599Z,8.7
2022-12-25T12:53:29.246Z,8.7
2022-12-25T13:03:29.523Z,8.8
2022-12-25T13:13:29.917Z,8.8
2022-12-25T13:23:30.409Z,8.8
2022-12-25T13:33:31.476Z,8.8
2022-12-25T13:43:31.641Z,8.8
2022-12-25T13:53:32.444Z,8.8
2022-12-25T14:03:32.989Z,8.8
2022-12-25T14:13:34.003Z,8.9
2022-12-25T14:23:34.506Z,8.8
2022-12-25T14:43:36.217Z,8.8
2022-12-25T14:53:36.367Z,8.8
2022-12-25T15:03:37.288Z,8.8
2022-12-25T15:13:38.335Z,8.8
2022-12-25T15:23:38.435Z,8.8
2022-12-25T15:33:43.800Z,8.8
2022-12-25T15:43:40.668Z,8.7
2022-12-25T16:03:40.415Z,8.7
2022-12-25T16:13:40.464Z,8.7
2022-12-25T16:23:40.633Z,8.7
2022-12-25T16:33:41.206Z,8.6
2022-12-25T16:43:41.442Z,8.6
2022-12-25T16:53:41.748Z,8.6
2022-12-25T17:03:42.559Z,8.6
2022-12-25T17:13:43.165Z,8.6
2022-12-25T17:23:43.769Z,8.6
2022-12-25T17:33:44.067Z,8.6
2022-12-25T17:43:44.912Z,8.6
2022-12-25T17:53:45.733Z,8.6
2022-12-25T18:03:46.402Z,8.7
2022-12-25T18:13:47.384Z,8.7
2022-12-25T18:23:47.567Z,8.7
2022-12-25T18:33:48.453Z,8.7
2022-12-25T18:43:51.863Z,8.8
2022-12-25T18:53:49.696Z,9
2022-12-25T19:03:50.699Z,9.4
2022-12-25T19:13:50.867Z,9.6
2022-12-25T19:23:51.731Z,9.7
2022-12-25T19:33:52.261Z,9.9
2022-12-25T19:43:52.655Z,9.9
2022-12-25T19:53:53.783Z,10.1
2022-12-25T20:03:53.937Z,10.1
2022-12-25T20:13:54.109Z,10
2022-12-25T20:23:54.793Z,10
2022-12-25T20:33:55.122Z,10
2022-12-25T20:43:55.631Z,10.1
2022-12-25T20:53:56.202Z,10.1
2022-12-25T21:03:57.096Z,10.1
2022-12-25T21:13:57.022Z,10.1
2022-12-25T21:23:58.073Z,10.1
2022-12-25T21:33:58.670Z,10.1
2022-12-25T21:43:58.989Z,10.1
2022-12-25T21:53:59.746Z,10.1
2022-12-25T22:03:59.834Z,10.2
2022-12-25T22:13:59.976Z,10.2
2022-12-25T22:24:00.330Z,10.2
2022-12-25T22:34:01.316Z,10.3
2022-12-25T22:44:17.320Z,10.3
2022-12-25T22:54:03.876Z,10.3
2022-12-25T23:04:03.454Z,10.3
2022-12-25T23:14:03.690Z,10.3
2022-12-25T23:24:04.566Z,10.3
2022-12-25T23:34:05.207Z,10.3
2022-12-25T23:44:05.546Z,10.3
2022-12-25T23:54:06.442Z,10.3
